createdAt,value
2018-07-20T00:00:23.672Z,7.77
2018-07-20T00:02:52.068Z,7.80
2018-07-20T00:05:20.093Z,8.57
2018-07-20T00:07:48.356Z,8.60
2018-07-20T00:10:16.832Z,7.20
2018-07-20T00:12:45.128Z,8.27
2018-07-20T00:15:13.510Z,8.50
2018-07-20T00:17:41.810Z,9.07
2018-07-20T00:20:10.268Z,8.50
2018-07-20T00:22:38.578Z,9.63
2018-07-20T00:25:06.902Z,11.63
2018-07-20T00:27:35.190Z,8.67
2018-07-20T00:30:03.525Z,7.67
2018-07-20T00:32:31.891Z,8.10
2018-07-20T00:35:00.213Z,7.97
2018-07-20T00:37:28.493Z,8.13
2018-07-20T00:39:56.815Z,7.53
2018-07-20T00:42:25.042Z,7.87
2018-07-20T00:44:53.313Z,7.10
2018-07-20T00:47:21.612Z,7.20
2018-07-20T00:49:49.878Z,6.93
2018-07-20T00:52:18.233Z,7.50
2018-07-20T00:54:46.676Z,6.50
2018-07-20T00:57:15.010Z,6.40
2018-07-20T00:59:43.350Z,6.47
2018-07-20T01:02:11.485Z,6.40
2018-07-20T01:04:39.826Z,6.97
2018-07-20T01:07:08.124Z,7.00
2018-07-20T01:09:36.427Z,9.93
2018-07-20T01:12:04.734Z,8.07
2018-07-20T01:14:33.089Z,8.30
2018-07-20T01:17:01.354Z,10.30
2018-07-20T01:19:29.738Z,8.30
2018-07-20T01:21:58.133Z,10.50
2018-07-20T01:24:26.508Z,10.63
2018-07-20T01:26:54.845Z,8.20
2018-07-20T01:29:23.159Z,8.53
2018-07-20T01:31:51.488Z,9.97
2018-07-20T01:34:19.754Z,9.73
2018-07-20T01:36:48.130Z,7.67
2018-07-20T01:39:16.418Z,7.10
2018-07-20T01:41:44.836Z,8.03
2018-07-20T01:44:13.179Z,8.13
2018-07-20T01:46:41.471Z,7.83
2018-07-20T01:49:09.874Z,8.00
2018-07-20T01:51:38.270Z,8.37
2018-07-20T01:54:06.487Z,8.47
2018-07-20T01:56:34.650Z,7.83
2018-07-20T01:59:02.890Z,9.00
2018-07-20T02:01:31.078Z,8.87
2018-07-20T02:03:59.260Z,9.33
2018-07-20T02:06:27.454Z,10.30
2018-07-20T02:08:55.622Z,9.43
2018-07-20T02:11:23.814Z,9.57
2018-07-20T02:13:52.034Z,9.97
2018-07-20T02:16:20.250Z,9.33
2018-07-20T02:18:48.483Z,8.73
2018-07-20T02:21:16.702Z,8.77
2018-07-20T02:23:44.946Z,8.60
2018-07-20T02:26:13.155Z,8.87
2018-07-20T02:28:41.383Z,9.20
2018-07-20T02:31:09.588Z,9.10
2018-07-20T02:33:37.566Z,9.33
2018-07-20T02:36:05.797Z,10.20
2018-07-20T02:38:33.984Z,10.03
2018-07-20T02:41:02.159Z,9.50
2018-07-20T02:43:30.328Z,8.30
2018-07-20T02:45:58.526Z,8.90
2018-07-20T02:48:26.472Z,9.10
2018-07-20T02:50:54.670Z,8.27
2018-07-20T02:53:22.584Z,8.80
2018-07-20T02:55:50.814Z,9.00
2018-07-20T02:58:19.002Z,9.30
2018-07-20T03:00:47.226Z,9.20
2018-07-20T03:03:15.412Z,9.10
2018-07-20T03:05:43.622Z,8.60
2018-07-20T03:08:11.853Z,9.70
2018-07-20T03:10:40.079Z,9.43
2018-07-20T03:13:08.117Z,9.60
2018-07-20T03:15:36.426Z,9.77
2018-07-20T03:18:04.605Z,9.67
2018-07-20T03:20:32.781Z,9.57
2018-07-20T03:23:00.996Z,8.90
2018-07-20T03:25:29.213Z,9.00
2018-07-20T03:30:31.874Z,8.73
2018-07-20T03:33:00.164Z,9.63
2018-07-20T03:35:28.268Z,9.50
2018-07-20T03:37:56.489Z,11.10
2018-07-20T03:40:24.689Z,11.20
2018-07-20T03:42:52.994Z,11.10
2018-07-20T03:45:21.120Z,11.27
2018-07-20T03:47:49.308Z,9.80
2018-07-20T03:50:17.468Z,11.30
2018-07-20T03:52:45.712Z,10.97
2018-07-20T03:55:13.965Z,10.00
2018-07-20T03:57:41.928Z,9.87
2018-07-20T04:00:10.127Z,9.63
2018-07-20T04:02:38.329Z,9.77
2018-07-20T04:05:06.482Z,9.50
2018-07-20T04:07:34.830Z,9.67
2018-07-20T04:10:02.989Z,10.60
2018-07-20T04:12:31.184Z,9.37
2018-07-20T04:14:59.427Z,9.73
2018-07-20T04:17:31.828Z,9.47
2018-07-20T04:20:00.063Z,8.83
2018-07-20T04:22:28.286Z,9.90
2018-07-20T04:24:56.506Z,10.80
2018-07-20T04:27:24.720Z,11.47
2018-07-20T04:29:52.672Z,11.23
2018-07-20T04:32:20.869Z,10.50
2018-07-20T04:34:48.836Z,13.73
2018-07-20T04:37:16.804Z,9.60
2018-07-20T04:39:44.724Z,9.03
2018-07-20T04:42:12.920Z,9.90
2018-07-20T04:44:41.123Z,9.53
2018-07-20T04:47:09.294Z,9.63
2018-07-20T04:49:37.355Z,10.67
2018-07-20T04:52:05.628Z,9.43
2018-07-20T04:54:33.870Z,9.53
2018-07-20T04:57:02.231Z,9.10
2018-07-20T04:59:30.424Z,8.97
2018-07-20T05:01:58.717Z,8.57
2018-07-20T05:04:26.927Z,8.83
2018-07-20T05:06:55.182Z,10.10
2018-07-20T05:09:23.432Z,9.80
2018-07-20T05:11:51.638Z,8.20
2018-07-20T05:14:19.887Z,8.83
2018-07-20T05:16:48.562Z,9.70
2018-07-20T05:19:16.775Z,10.00
2018-07-20T05:21:44.974Z,10.33
2018-07-20T05:24:13.245Z,10.37
2018-07-20T05:26:41.376Z,9.43
2018-07-20T05:29:09.568Z,10.80
2018-07-20T05:31:37.753Z,9.23
2018-07-20T05:34:05.991Z,9.90
2018-07-20T05:36:34.206Z,10.40
2018-07-20T05:39:02.383Z,10.03
2018-07-20T05:41:30.624Z,9.47
2018-07-20T05:43:58.824Z,9.53
2018-07-20T05:46:26.965Z,10.10
2018-07-20T05:48:55.111Z,9.67
2018-07-20T05:51:23.269Z,9.37
2018-07-20T05:53:51.458Z,9.17
2018-07-20T05:56:19.614Z,8.33
2018-07-20T05:58:47.823Z,8.80
2018-07-20T06:01:16.036Z,8.57
2018-07-20T06:03:44.236Z,9.03
2018-07-20T06:06:12.386Z,9.57
2018-07-20T06:08:40.570Z,9.67
2018-07-20T06:11:08.741Z,8.20
2018-07-20T06:13:36.976Z,8.97
2018-07-20T06:16:05.142Z,8.20
2018-07-20T06:18:33.396Z,7.90
2018-07-20T06:21:01.602Z,8.67
2018-07-20T06:23:29.843Z,8.93
2018-07-20T06:25:57.791Z,9.53
2018-07-20T06:28:25.967Z,9.20
2018-07-20T06:30:54.185Z,9.23
2018-07-20T06:33:22.370Z,9.90
2018-07-20T06:35:50.567Z,8.80
2018-07-20T06:38:18.770Z,9.53
2018-07-20T06:40:46.741Z,9.60
2018-07-20T06:43:14.996Z,8.73
2018-07-20T06:45:43.209Z,9.23
2018-07-20T06:48:11.402Z,8.37
2018-07-20T06:50:39.581Z,8.90
2018-07-20T06:53:08.746Z,8.30
2018-07-20T06:55:36.881Z,8.37
2018-07-20T06:58:05.226Z,7.73
2018-07-20T07:00:33.426Z,8.20
2018-07-20T07:03:01.625Z,7.60
2018-07-20T07:05:29.810Z,7.80
2018-07-20T07:07:57.981Z,8.37
2018-07-20T07:10:25.881Z,6.80
2018-07-20T07:12:54.075Z,7.70
2018-07-20T07:15:22.293Z,6.73
2018-07-20T07:17:50.238Z,6.53
2018-07-20T07:20:18.397Z,6.20
2018-07-20T07:22:46.605Z,6.43
2018-07-20T07:25:14.823Z,6.47
2018-07-20T07:27:43.017Z,6.87
2018-07-20T07:30:11.181Z,7.10
2018-07-20T07:32:39.379Z,6.60
2018-07-20T07:35:07.568Z,5.87
2018-07-20T07:37:35.781Z,6.00
2018-07-20T07:40:03.738Z,6.87
2018-07-20T07:42:31.962Z,6.43
2018-07-20T07:45:00.149Z,6.33
2018-07-20T07:47:28.374Z,6.97
2018-07-20T07:49:56.599Z,6.83
2018-07-20T07:52:24.797Z,6.13
2018-07-20T07:54:53.065Z,8.70
2018-07-20T07:57:21.197Z,5.83
2018-07-20T07:59:49.366Z,6.40
2018-07-20T08:02:17.591Z,6.47
2018-07-20T08:04:45.787Z,8.60
2018-07-20T08:07:13.961Z,6.20
2018-07-20T08:09:41.992Z,5.93
2018-07-20T08:12:10.166Z,6.80
2018-07-20T08:14:38.382Z,7.17
2018-07-20T08:17:06.559Z,5.20
2018-07-20T08:19:34.493Z,6.13
2018-07-20T08:22:02.715Z,6.20
2018-07-20T08:24:30.895Z,6.00
2018-07-20T08:26:59.118Z,6.13
2018-07-20T08:29:27.407Z,5.57
2018-07-20T08:31:55.534Z,5.43
2018-07-20T08:34:23.728Z,5.57
2018-07-20T08:36:51.928Z,4.60
2018-07-20T08:39:20.146Z,5.23
2018-07-20T08:41:48.363Z,4.70
2018-07-20T08:44:16.595Z,5.03
2018-07-20T08:46:44.801Z,5.03
2018-07-20T08:49:13.007Z,4.30
2018-07-20T08:51:41.244Z,4.63
2018-07-20T08:54:09.495Z,4.50
2018-07-20T08:56:37.617Z,4.40
2018-07-20T08:59:06.094Z,4.53
2018-07-20T09:01:34.154Z,5.30
2018-07-20T09:04:02.301Z,4.80
2018-07-20T09:06:30.466Z,4.80
2018-07-20T09:08:58.797Z,4.67
2018-07-20T09:11:26.960Z,5.23
2018-07-20T09:13:55.148Z,4.43
2018-07-20T09:16:23.314Z,3.77
2018-07-20T09:18:51.524Z,4.10
2018-07-20T09:21:19.687Z,4.53
2018-07-20T09:23:47.638Z,4.20
2018-07-20T09:26:15.890Z,4.20
2018-07-20T09:28:44.106Z,4.63
2018-07-20T09:31:12.050Z,4.13
2018-07-20T09:33:40.243Z,4.30
2018-07-20T09:36:08.474Z,4.13
2018-07-20T09:38:36.666Z,4.10
2018-07-20T09:41:04.924Z,4.20
2018-07-20T09:43:33.130Z,4.37
2018-07-20T09:46:01.303Z,3.90
2018-07-20T09:48:29.493Z,3.73
2018-07-20T09:50:57.725Z,5.43
2018-07-20T09:53:25.910Z,4.73
2018-07-20T09:55:54.094Z,4.10
2018-07-20T09:58:22.296Z,3.97
2018-07-20T10:00:51.493Z,5.13
2018-07-20T10:03:21.743Z,4.27
2018-07-20T10:05:49.940Z,4.23
2018-07-20T10:08:19.131Z,5.10
2018-07-20T10:10:47.501Z,4.93
2018-07-20T10:13:16.198Z,4.27
2018-07-20T10:15:44.483Z,4.03
2018-07-20T10:18:12.701Z,4.60
2018-07-20T10:20:40.933Z,4.50
2018-07-20T10:23:09.213Z,5.93
2018-07-20T10:25:37.491Z,4.33
2018-07-20T10:28:05.636Z,4.73
2018-07-20T10:30:33.858Z,4.37
2018-07-20T10:33:02.000Z,4.40
2018-07-20T10:35:30.225Z,4.80
2018-07-20T10:37:58.449Z,4.50
2018-07-20T10:40:27.732Z,4.00
2018-07-20T10:42:57.782Z,4.60
2018-07-20T10:45:26.291Z,4.40
2018-07-20T10:47:54.590Z,4.17
2018-07-20T10:50:22.884Z,4.30
2018-07-20T10:52:51.161Z,4.50
2018-07-20T10:55:19.855Z,6.03
2018-07-20T10:57:48.328Z,4.77
2018-07-20T11:00:16.649Z,4.97
2018-07-20T11:02:45.027Z,4.57
2018-07-20T11:05:13.359Z,4.80
2018-07-20T11:07:41.631Z,5.00
2018-07-20T11:10:09.921Z,4.30
2018-07-20T11:12:38.270Z,4.40
2018-07-20T11:15:06.419Z,4.40
2018-07-20T11:17:34.849Z,4.17
2018-07-20T11:20:03.186Z,6.23
2018-07-20T11:22:31.515Z,4.50
2018-07-20T11:24:59.800Z,4.47
2018-07-20T11:27:28.171Z,4.70
2018-07-20T11:29:56.526Z,4.57
2018-07-20T11:32:24.875Z,5.33
2018-07-20T11:34:53.254Z,5.07
2018-07-20T11:37:21.585Z,5.67
2018-07-20T11:39:49.901Z,5.30
2018-07-20T11:42:18.216Z,4.33
2018-07-20T11:44:46.565Z,4.30
2018-07-20T11:47:14.941Z,4.00
2018-07-20T11:49:43.289Z,3.63
2018-07-20T11:52:11.658Z,4.00
2018-07-20T11:54:40.328Z,3.97
2018-07-20T11:57:08.653Z,4.27
2018-07-20T11:59:36.997Z,4.00
2018-07-20T12:02:05.299Z,4.10
2018-07-20T12:04:33.605Z,4.33
2018-07-20T12:07:02.026Z,4.40
2018-07-20T12:09:30.335Z,4.20
2018-07-20T12:11:58.666Z,4.13
2018-07-20T12:14:26.990Z,4.60
2018-07-20T12:16:55.286Z,4.00
2018-07-20T12:19:23.596Z,4.50
2018-07-20T12:21:51.850Z,4.07
2018-07-20T12:24:19.817Z,4.30
2018-07-20T12:26:48.091Z,4.40
2018-07-20T12:29:16.376Z,4.23
2018-07-20T12:31:44.547Z,4.60
2018-07-20T12:34:12.508Z,6.43
2018-07-20T12:36:40.725Z,5.30
2018-07-20T12:39:10.104Z,4.20
2018-07-20T12:41:38.301Z,5.97
2018-07-20T12:44:06.474Z,3.87
2018-07-20T12:46:34.725Z,4.00
2018-07-20T12:49:02.961Z,4.50
2018-07-20T12:51:31.151Z,5.47
2018-07-20T12:53:59.371Z,4.47
2018-07-20T12:56:27.542Z,5.10
2018-07-20T12:58:55.793Z,5.10
2018-07-20T13:01:23.911Z,5.80
2018-07-20T13:03:52.067Z,3.70
2018-07-20T13:06:20.277Z,3.50
2018-07-20T13:08:48.468Z,4.17
2018-07-20T13:11:17.073Z,4.10
2018-07-20T13:13:45.011Z,4.23
2018-07-20T13:16:13.169Z,3.80
2018-07-20T13:18:41.338Z,5.03
2018-07-20T13:21:09.539Z,4.00
2018-07-20T13:23:37.764Z,3.70
2018-07-20T13:26:05.954Z,3.90
2018-07-20T13:28:34.230Z,4.00
2018-07-20T13:31:02.434Z,4.97
2018-07-20T13:33:30.631Z,4.20
2018-07-20T13:35:58.842Z,3.80
2018-07-20T13:38:27.046Z,4.57
2018-07-20T13:40:55.254Z,4.20
2018-07-20T13:43:23.462Z,3.83
2018-07-20T13:45:51.670Z,4.10
2018-07-20T13:48:19.911Z,4.20
2018-07-20T13:50:48.105Z,3.80
2018-07-20T13:53:16.318Z,4.70
2018-07-20T13:55:44.538Z,3.90
2018-07-20T13:58:12.465Z,3.73
2018-07-20T14:00:40.650Z,3.93
2018-07-20T14:03:08.836Z,3.83
2018-07-20T14:05:36.763Z,3.70
2018-07-20T14:08:04.941Z,3.83
2018-07-20T14:10:33.196Z,4.13
2018-07-20T14:13:01.377Z,3.47
2018-07-20T14:15:29.607Z,3.83
2018-07-20T14:17:57.617Z,3.63
2018-07-20T14:20:25.983Z,4.07
2018-07-20T14:22:54.266Z,3.77
2018-07-20T14:25:22.558Z,3.70
2018-07-20T14:27:50.831Z,3.67
2018-07-20T14:30:19.172Z,3.80
2018-07-20T14:32:47.160Z,3.70
2018-07-20T14:35:15.418Z,3.60
2018-07-20T14:37:43.528Z,3.57
2018-07-20T14:40:11.888Z,3.83
2018-07-20T14:42:40.213Z,3.83
2018-07-20T14:45:08.999Z,3.70
2018-07-20T14:47:37.385Z,3.53
2018-07-20T14:50:05.882Z,3.73
2018-07-20T14:52:34.101Z,4.03
2018-07-20T14:55:02.291Z,3.77
2018-07-20T14:57:30.486Z,3.93
2018-07-20T14:59:58.657Z,3.70
2018-07-20T15:02:26.866Z,3.90
2018-07-20T15:04:55.046Z,3.60
2018-07-20T15:07:23.242Z,3.90
2018-07-20T15:09:51.419Z,3.97
2018-07-20T15:12:19.677Z,3.90
2018-07-20T15:14:47.822Z,3.27
2018-07-20T15:17:15.995Z,3.93
2018-07-20T15:19:44.170Z,3.83
2018-07-20T15:22:12.321Z,4.30
2018-07-20T15:24:40.497Z,5.37
2018-07-20T15:27:08.656Z,4.07
2018-07-20T15:29:36.883Z,4.17
2018-07-20T15:32:05.025Z,5.30
2018-07-20T15:34:33.198Z,4.20
2018-07-20T15:37:01.449Z,4.80
2018-07-20T15:39:29.869Z,4.40
2018-07-20T15:41:58.126Z,4.10
2018-07-20T15:44:26.435Z,4.43
2018-07-20T15:46:54.645Z,5.30
2018-07-20T15:49:22.745Z,4.33
2018-07-20T15:53:35.717Z,4.20
2018-07-20T15:54:19.484Z,5.83
2018-07-20T15:56:47.819Z,4.40
2018-07-20T15:59:15.941Z,4.17
2018-07-20T16:01:44.277Z,4.30
2018-07-20T16:04:12.554Z,4.40
2018-07-20T16:06:40.888Z,4.60
2018-07-20T16:09:11.105Z,4.77
2018-07-20T16:11:39.521Z,4.27
2018-07-20T16:14:07.883Z,4.73
2018-07-20T16:16:36.246Z,5.17
2018-07-20T16:19:04.679Z,4.87
2018-07-20T16:21:33.010Z,5.03
2018-07-20T16:24:01.382Z,4.40
2018-07-20T16:26:29.792Z,4.57
2018-07-20T16:28:57.822Z,5.10
2018-07-20T16:31:26.146Z,4.63
2018-07-20T16:33:54.421Z,4.60
2018-07-20T16:36:22.456Z,4.90
2018-07-20T16:38:50.834Z,4.27
2018-07-20T16:41:19.202Z,4.27
2018-07-20T16:43:47.523Z,4.37
2018-07-20T16:46:15.936Z,4.60
2018-07-20T16:48:44.342Z,5.30
2018-07-20T16:51:12.713Z,3.93
2018-07-20T16:53:41.024Z,4.87
2018-07-20T16:56:09.253Z,4.60
2018-07-20T16:58:37.571Z,4.40
2018-07-20T17:01:05.829Z,5.13
2018-07-20T17:03:34.139Z,4.70
2018-07-20T17:06:02.488Z,4.40
2018-07-20T17:08:30.781Z,4.30
2018-07-20T17:10:59.170Z,4.47
2018-07-20T17:13:27.519Z,4.80
2018-07-20T17:15:55.823Z,4.90
2018-07-20T17:18:24.103Z,4.70
2018-07-20T17:20:52.347Z,4.53
2018-07-20T17:23:20.693Z,5.33
2018-07-20T17:25:49.068Z,5.10
2018-07-20T17:28:17.387Z,4.60
2018-07-20T17:30:45.671Z,5.47
2018-07-20T17:33:13.993Z,4.50
2018-07-20T17:35:42.246Z,4.80
2018-07-20T17:38:10.526Z,6.13
2018-07-20T17:40:38.537Z,4.83
2018-07-20T17:43:06.864Z,5.20
2018-07-20T17:45:35.117Z,4.60
2018-07-20T17:48:03.514Z,4.77
2018-07-20T17:50:31.797Z,5.97
2018-07-20T17:53:00.090Z,4.37
2018-07-20T17:55:28.135Z,4.67
2018-07-20T17:57:56.492Z,4.47
2018-07-20T18:00:24.789Z,4.00
2018-07-20T18:02:53.095Z,4.53
2018-07-20T18:05:21.451Z,4.50
2018-07-20T18:07:49.890Z,4.30
2018-07-20T18:10:18.170Z,5.03
2018-07-20T18:12:46.429Z,4.80
2018-07-20T18:15:14.807Z,4.83
2018-07-20T18:17:43.151Z,4.57
2018-07-20T18:20:11.422Z,5.13
2018-07-20T18:22:39.688Z,10.30
2018-07-20T18:25:07.995Z,7.20
2018-07-20T18:27:36.396Z,7.90
2018-07-20T18:30:05.359Z,13.57
2018-07-20T18:32:33.409Z,6.30
2018-07-20T18:35:01.681Z,9.20
2018-07-20T18:37:30.038Z,9.90
2018-07-20T18:39:58.390Z,5.60
2018-07-20T18:42:26.726Z,6.53
2018-07-20T18:44:55.042Z,7.37
2018-07-20T18:47:23.305Z,5.87
2018-07-20T18:49:51.683Z,5.20
2018-07-20T18:52:19.727Z,6.93
2018-07-20T18:54:48.026Z,8.00
2018-07-20T18:57:16.303Z,7.07
2018-07-20T18:59:44.368Z,15.60
2018-07-20T19:02:12.644Z,6.37
2018-07-20T19:04:40.616Z,4.60
2018-07-20T19:07:08.981Z,8.50
2018-07-20T19:09:37.279Z,6.53
2018-07-20T19:12:05.621Z,12.00
2018-07-20T19:14:33.999Z,7.53
2018-07-20T19:17:02.349Z,8.03
2018-07-20T19:19:30.621Z,6.20
2018-07-20T19:21:58.923Z,6.70
2018-07-20T19:24:27.200Z,11.70
2018-07-20T19:26:55.520Z,5.97
2018-07-20T19:29:23.774Z,7.13
2018-07-20T19:31:52.090Z,7.03
2018-07-20T19:34:20.405Z,8.73
2018-07-20T19:36:48.766Z,7.40
2018-07-20T19:39:17.173Z,6.70
2018-07-20T19:41:45.454Z,7.07
2018-07-20T19:44:13.778Z,6.27
2018-07-20T19:46:42.102Z,8.20
2018-07-20T19:49:10.518Z,9.03
2018-07-20T19:51:38.504Z,8.53
2018-07-20T19:54:13.426Z,9.90
2018-07-20T19:56:41.669Z,11.97
2018-07-20T19:59:09.986Z,12.27
2018-07-20T20:01:38.249Z,10.67
2018-07-20T20:04:06.351Z,10.07
2018-07-20T20:06:34.742Z,8.53
2018-07-20T20:09:03.136Z,11.33
2018-07-20T20:11:31.522Z,9.27
2018-07-20T20:13:59.901Z,7.23
2018-07-20T20:16:28.125Z,8.07
2018-07-20T20:18:56.503Z,10.40
2018-07-20T20:21:24.757Z,9.50
2018-07-20T20:23:52.760Z,7.60
2018-07-20T20:26:21.069Z,9.03
2018-07-20T20:28:49.397Z,7.90
2018-07-20T20:31:17.501Z,7.23
2018-07-20T20:33:45.916Z,6.50
2018-07-20T20:36:14.237Z,8.10
2018-07-20T20:38:42.719Z,10.27
2018-07-20T20:41:11.029Z,8.97
2018-07-20T20:43:39.605Z,8.57
2018-07-20T20:46:07.965Z,7.87
2018-07-20T20:48:36.301Z,7.27
2018-07-20T20:51:04.647Z,7.97
2018-07-20T20:53:32.895Z,7.47
2018-07-20T20:56:01.158Z,7.50
2018-07-20T20:58:29.458Z,8.07
2018-07-20T21:00:57.800Z,8.60
2018-07-20T21:03:26.136Z,8.30
2018-07-20T21:05:54.537Z,8.43
2018-07-20T21:08:22.846Z,9.20
2018-07-20T21:10:50.832Z,8.37
2018-07-20T21:13:19.107Z,8.50
2018-07-20T21:15:47.429Z,9.70
2018-07-20T21:18:15.722Z,9.57
2018-07-20T21:20:44.128Z,9.53
2018-07-20T21:23:12.502Z,8.97
2018-07-20T21:25:40.972Z,12.80
2018-07-20T21:28:09.221Z,9.13
2018-07-20T21:30:37.590Z,8.90
2018-07-20T21:33:05.834Z,9.23
2018-07-20T21:35:34.086Z,8.03
2018-07-20T21:38:02.468Z,11.67
2018-07-20T21:40:30.761Z,11.67
2018-07-20T21:42:59.155Z,10.00
2018-07-20T21:45:27.486Z,9.70
2018-07-20T21:47:55.903Z,9.40
2018-07-20T21:50:24.270Z,8.70
2018-07-20T21:52:52.552Z,8.23
2018-07-20T21:55:20.888Z,20.73
2018-07-20T21:57:49.249Z,8.70
2018-07-20T22:00:18.985Z,8.80
2018-07-20T22:02:48.311Z,8.93
2018-07-20T22:05:16.639Z,9.80
2018-07-20T22:07:44.979Z,9.93
2018-07-20T22:10:13.394Z,9.03
2018-07-20T22:12:41.833Z,11.43
2018-07-20T22:15:10.379Z,9.37
2018-07-20T22:17:38.839Z,8.60
2018-07-20T22:20:08.261Z,7.93
2018-07-20T22:22:36.583Z,7.47
2018-07-20T22:25:05.730Z,7.90
2018-07-20T22:27:34.433Z,6.50
2018-07-20T22:30:02.932Z,6.67
2018-07-20T22:32:31.305Z,7.70
2018-07-20T22:34:59.741Z,10.20
2018-07-20T22:37:28.076Z,8.30
2018-07-20T22:39:56.451Z,7.80
2018-07-20T22:42:24.765Z,8.43
2018-07-20T22:44:53.091Z,7.47
2018-07-20T22:47:21.394Z,9.83
2018-07-20T22:49:49.710Z,9.40
2018-07-20T22:52:18.046Z,10.10
2018-07-20T22:54:46.551Z,9.97
2018-07-20T22:57:14.902Z,11.13
2018-07-20T22:59:43.271Z,11.60
2018-07-20T23:02:11.659Z,12.23
2018-07-20T23:04:40.056Z,11.23
2018-07-20T23:07:08.507Z,10.67
2018-07-20T23:09:36.858Z,10.63
2018-07-20T23:12:05.158Z,14.40
2018-07-20T23:14:33.278Z,12.83
2018-07-20T23:17:01.601Z,12.80
2018-07-20T23:19:30.039Z,11.37
2018-07-20T23:21:58.391Z,11.50
2018-07-20T23:24:27.618Z,9.73
2018-07-20T23:26:56.137Z,9.90
2018-07-20T23:29:24.512Z,10.67
2018-07-20T23:31:52.817Z,9.87
2018-07-20T23:34:21.245Z,9.37
2018-07-20T23:36:49.603Z,10.53
2018-07-20T23:39:18.091Z,9.80
2018-07-20T23:41:46.471Z,9.97
2018-07-20T23:44:14.854Z,10.70
2018-07-20T23:46:43.257Z,11.40
2018-07-20T23:49:11.605Z,12.87
2018-07-20T23:51:39.986Z,11.20
2018-07-20T23:54:08.315Z,10.70
2018-07-20T23:56:36.404Z,9.70
2018-07-20T23:59:04.797Z,10.70
